sensor_id;sensor_type;location;lat;lon;timestamp;P1;durP1;ratioP1;P2;durP2;ratioP2
69203;SDS011;56317;27.658;85.326;2023-03-04T00:00:25;426.42;;;235.88;;
69203;SDS011;56317;27.658;85.326;2023-03-04T00:02:52;401.27;;;227.05;;
69203;SDS011;56317;27.658;85.326;2023-03-04T00:05:20;399.58;;;229.52;;
69203;SDS011;56317;27.658;85.326;2023-03-04T00:07:47;402.10;;;237.95;;
69203;SDS011;56317;27.658;85.326;2023-03-04T00:10:14;410.70;;;235.02;;
69203;SDS011;56317;27.658;85.326;2023-03-04T00:12:42;415.05;;;237.27;;
69203;SDS011;56317;27.658;85.326;2023-03-04T00:15:09;402.83;;;231.68;;
69203;SDS011;56317;27.658;85.326;2023-03-04T00:17:36;431.98;;;239.20;;
69203;SDS011;56317;27.658;85.326;2023-03-04T00:20:03;407.02;;;232.48;;
69203;SDS011;56317;27.658;85.326;2023-03-04T00:22:31;397.88;;;233.35;;
69203;SDS011;56317;27.658;85.326;2023-03-04T00:24:58;418.42;;;239.77;;
69203;SDS011;56317;27.658;85.326;2023-03-04T00:27:25;410.48;;;232.82;;
69203;SDS011;56317;27.658;85.326;2023-03-04T00:29:53;402.75;;;233.88;;
69203;SDS011;56317;27.658;85.326;2023-03-04T00:32:20;404.77;;;235.57;;
69203;SDS011;56317;27.658;85.326;2023-03-04T00:34:48;419.55;;;238.45;;
69203;SDS011;56317;27.658;85.326;2023-03-04T00:37:15;423.10;;;237.85;;
69203;SDS011;56317;27.658;85.326;2023-03-04T00:39:42;412.95;;;236.45;;
69203;SDS011;56317;27.658;85.326;2023-03-04T00:42:09;410.48;;;237.57;;
69203;SDS011;56317;27.658;85.326;2023-03-04T00:44:37;417.17;;;238.18;;
69203;SDS011;56317;27.658;85.326;2023-03-04T00:47:04;432.50;;;244.70;;
69203;SDS011;56317;27.658;85.326;2023-03-04T00:49:31;428.95;;;242.70;;
69203;SDS011;56317;27.658;85.326;2023-03-04T00:51:58;444.10;;;243.20;;
69203;SDS011;56317;27.658;85.326;2023-03-04T00:54:25;427.17;;;234.13;;
69203;SDS011;56317;27.658;85.326;2023-03-04T00:56:53;392.23;;;227.07;;
69203;SDS011;56317;27.658;85.326;2023-03-04T00:59:20;389.48;;;227.10;;
69203;SDS011;56317;27.658;85.326;2023-03-04T01:01:47;362.05;;;221.60;;
69203;SDS011;56317;27.658;85.326;2023-03-04T01:04:14;353.40;;;209.88;;
69203;SDS011;56317;27.658;85.326;2023-03-04T01:06:41;342.40;;;202.05;;
69203;SDS011;56317;27.658;85.326;2023-03-04T01:09:09;329.30;;;191.13;;
69203;SDS011;56317;27.658;85.326;2023-03-04T01:11:36;312.38;;;186.75;;
69203;SDS011;56317;27.658;85.326;2023-03-04T01:14:03;283.63;;;174.30;;
69203;SDS011;56317;27.658;85.326;2023-03-04T01:16:30;282.90;;;170.13;;
69203;SDS011;56317;27.658;85.326;2023-03-04T01:18:58;297.52;;;174.90;;
69203;SDS011;56317;27.658;85.326;2023-03-04T01:21:25;283.92;;;168.93;;
69203;SDS011;56317;27.658;85.326;2023-03-04T01:23:52;295.00;;;168.40;;
69203;SDS011;56317;27.658;85.326;2023-03-04T01:26:19;279.50;;;166.13;;
69203;SDS011;56317;27.658;85.326;2023-03-04T01:28:47;282.83;;;169.07;;
69203;SDS011;56317;27.658;85.326;2023-03-04T01:31:14;272.33;;;159.95;;
69203;SDS011;56317;27.658;85.326;2023-03-04T01:33:41;295.73;;;163.40;;
69203;SDS011;56317;27.658;85.326;2023-03-04T01:36:08;269.85;;;157.60;;
69203;SDS011;56317;27.658;85.326;2023-03-04T01:38:36;267.38;;;156.90;;
69203;SDS011;56317;27.658;85.326;2023-03-04T01:41:03;267.58;;;156.52;;
69203;SDS011;56317;27.658;85.326;2023-03-04T01:43:32;261.05;;;158.00;;
69203;SDS011;56317;27.658;85.326;2023-03-04T01:46:01;263.67;;;156.88;;
69203;SDS011;56317;27.658;85.326;2023-03-04T01:48:33;268.58;;;157.07;;
69203;SDS011;56317;27.658;85.326;2023-03-04T01:51:05;269.63;;;158.90;;
69203;SDS011;56317;27.658;85.326;2023-03-04T01:53:37;267.92;;;156.27;;
69203;SDS011;56317;27.658;85.326;2023-03-04T01:56:37;264.85;;;157.43;;
69203;SDS011;56317;27.658;85.326;2023-03-04T01:59:11;291.42;;;179.20;;
69203;SDS011;56317;27.658;85.326;2023-03-04T02:01:54;281.20;;;166.10;;
69203;SDS011;56317;27.658;85.326;2023-03-04T02:04:24;291.38;;;170.07;;
69203;SDS011;56317;27.658;85.326;2023-03-04T02:06:54;278.67;;;171.43;;
69203;SDS011;56317;27.658;85.326;2023-03-04T02:09:23;271.95;;;172.82;;
69203;SDS011;56317;27.658;85.326;2023-03-04T02:11:50;278.42;;;170.73;;
69203;SDS011;56317;27.658;85.326;2023-03-04T02:14:18;286.15;;;175.38;;
69203;SDS011;56317;27.658;85.326;2023-03-04T02:16:47;297.20;;;180.65;;
69203;SDS011;56317;27.658;85.326;2023-03-04T02:19:40;294.55;;;177.88;;
69203;SDS011;56317;27.658;85.326;2023-03-04T02:22:05;290.10;;;183.20;;
69203;SDS011;56317;27.658;85.326;2023-03-04T02:24:38;284.35;;;179.77;;
69203;SDS011;56317;27.658;85.326;2023-03-04T02:27:07;292.83;;;182.32;;
69203;SDS011;56317;27.658;85.326;2023-03-04T02:29:34;286.58;;;181.75;;
69203;SDS011;56317;27.658;85.326;2023-03-04T02:32:01;282.23;;;178.00;;
69203;SDS011;56317;27.658;85.326;2023-03-04T02:34:30;271.60;;;175.85;;
69203;SDS011;56317;27.658;85.326;2023-03-04T02:37:01;288.38;;;180.90;;
69203;SDS011;56317;27.658;85.326;2023-03-04T02:39:31;268.92;;;164.52;;
69203;SDS011;56317;27.658;85.326;2023-03-04T02:42:01;266.42;;;164.73;;
69203;SDS011;56317;27.658;85.326;2023-03-04T02:44:32;260.50;;;165.52;;
69203;SDS011;56317;27.658;85.326;2023-03-04T02:47:02;278.48;;;172.80;;
69203;SDS011;56317;27.658;85.326;2023-03-04T02:49:31;265.42;;;169.27;;
69203;SDS011;56317;27.658;85.326;2023-03-04T02:52:02;262.27;;;164.75;;
69203;SDS011;56317;27.658;85.326;2023-03-04T02:54:42;259.52;;;162.02;;
69203;SDS011;56317;27.658;85.326;2023-03-04T02:57:10;261.52;;;167.18;;
69203;SDS011;56317;27.658;85.326;2023-03-04T02:59:39;257.23;;;165.32;;
69203;SDS011;56317;27.658;85.326;2023-03-04T03:02:07;251.88;;;164.98;;
69203;SDS011;56317;27.658;85.326;2023-03-04T03:04:36;279.55;;;168.65;;
69203;SDS011;56317;27.658;85.326;2023-03-04T03:07:04;281.55;;;169.00;;
69203;SDS011;56317;27.658;85.326;2023-03-04T03:09:31;274.85;;;172.10;;
69203;SDS011;56317;27.658;85.326;2023-03-04T03:11:58;273.33;;;166.98;;
69203;SDS011;56317;27.658;85.326;2023-03-04T03:14:26;270.05;;;165.18;;
69203;SDS011;56317;27.658;85.326;2023-03-04T03:16:53;260.35;;;166.60;;
69203;SDS011;56317;27.658;85.326;2023-03-04T03:19:20;261.67;;;165.60;;
69203;SDS011;56317;27.658;85.326;2023-03-04T03:21:47;250.05;;;164.70;;
69203;SDS011;56317;27.658;85.326;2023-03-04T03:24:14;260.13;;;164.45;;
69203;SDS011;56317;27.658;85.326;2023-03-04T03:26:42;267.63;;;165.40;;
69203;SDS011;56317;27.658;85.326;2023-03-04T03:29:09;247.93;;;156.10;;
69203;SDS011;56317;27.658;85.326;2023-03-04T03:31:36;256.25;;;155.32;;
69203;SDS011;56317;27.658;85.326;2023-03-04T03:34:04;247.10;;;157.55;;
69203;SDS011;56317;27.658;85.326;2023-03-04T03:36:31;253.18;;;161.95;;
69203;SDS011;56317;27.658;85.326;2023-03-04T03:38:58;247.10;;;158.15;;
69203;SDS011;56317;27.658;85.326;2023-03-04T03:41:25;246.85;;;159.48;;
69203;SDS011;56317;27.658;85.326;2023-03-04T03:43:52;251.27;;;159.40;;
69203;SDS011;56317;27.658;85.326;2023-03-04T03:46:20;255.20;;;159.93;;
69203;SDS011;56317;27.658;85.326;2023-03-04T03:48:47;251.02;;;161.25;;
69203;SDS011;56317;27.658;85.326;2023-03-04T03:51:14;252.23;;;157.35;;
69203;SDS011;56317;27.658;85.326;2023-03-04T03:53:41;242.18;;;154.10;;
69203;SDS011;56317;27.658;85.326;2023-03-04T03:56:09;239.27;;;156.32;;
69203;SDS011;56317;27.658;85.326;2023-03-04T03:58:36;242.10;;;156.25;;
69203;SDS011;56317;27.658;85.326;2023-03-04T04:01:03;248.48;;;152.65;;
69203;SDS011;56317;27.658;85.326;2023-03-04T04:03:31;234.20;;;150.55;;
69203;SDS011;56317;27.658;85.326;2023-03-04T04:05:58;231.35;;;147.30;;
69203;SDS011;56317;27.658;85.326;2023-03-04T04:08:25;233.00;;;146.70;;
69203;SDS011;56317;27.658;85.326;2023-03-04T04:10:52;219.15;;;140.15;;
69203;SDS011;56317;27.658;85.326;2023-03-04T04:13:20;219.00;;;144.00;;
69203;SDS011;56317;27.658;85.326;2023-03-04T04:15:47;203.00;;;136.43;;
69203;SDS011;56317;27.658;85.326;2023-03-04T04:18:16;200.35;;;134.80;;
69203;SDS011;56317;27.658;85.326;2023-03-04T04:20:43;206.65;;;136.30;;
69203;SDS011;56317;27.658;85.326;2023-03-04T04:23:11;206.98;;;137.88;;
69203;SDS011;56317;27.658;85.326;2023-03-04T04:25:38;208.05;;;133.90;;
69203;SDS011;56317;27.658;85.326;2023-03-04T04:28:06;204.35;;;138.45;;
69203;SDS011;56317;27.658;85.326;2023-03-04T04:30:33;192.20;;;128.48;;
69203;SDS011;56317;27.658;85.326;2023-03-04T04:33:01;188.73;;;124.40;;
69203;SDS011;56317;27.658;85.326;2023-03-04T04:35:29;173.70;;;116.50;;
69203;SDS011;56317;27.658;85.326;2023-03-04T04:37:58;177.43;;;118.60;;
69203;SDS011;56317;27.658;85.326;2023-03-04T04:40:25;183.60;;;126.38;;
69203;SDS011;56317;27.658;85.326;2023-03-04T04:42:52;168.93;;;114.43;;
69203;SDS011;56317;27.658;85.326;2023-03-04T04:45:19;159.00;;;106.85;;
69203;SDS011;56317;27.658;85.326;2023-03-04T04:47:47;154.75;;;101.03;;
69203;SDS011;56317;27.658;85.326;2023-03-04T04:50:14;138.70;;;98.50;;
69203;SDS011;56317;27.658;85.326;2023-03-04T04:52:41;144.00;;;102.72;;
69203;SDS011;56317;27.658;85.326;2023-03-04T04:55:09;119.95;;;84.88;;
69203;SDS011;56317;27.658;85.326;2023-03-04T04:57:36;117.25;;;80.03;;
69203;SDS011;56317;27.658;85.326;2023-03-04T05:00:04;125.05;;;87.95;;
69203;SDS011;56317;27.658;85.326;2023-03-04T05:02:35;122.60;;;85.75;;
69203;SDS011;56317;27.658;85.326;2023-03-04T05:05:03;127.30;;;84.47;;
69203;SDS011;56317;27.658;85.326;2023-03-04T05:07:31;123.30;;;86.50;;
69203;SDS011;56317;27.658;85.326;2023-03-04T05:09:59;137.57;;;92.22;;
69203;SDS011;56317;27.658;85.326;2023-03-04T05:12:26;136.57;;;89.38;;
69203;SDS011;56317;27.658;85.326;2023-03-04T05:14:53;133.40;;;93.68;;
69203;SDS011;56317;27.658;85.326;2023-03-04T05:17:21;132.40;;;90.10;;
69203;SDS011;56317;27.658;85.326;2023-03-04T05:23:10;137.57;;;89.85;;
69203;SDS011;56317;27.658;85.326;2023-03-04T05:25:37;119.85;;;86.07;;
69203;SDS011;56317;27.658;85.326;2023-03-04T05:28:05;110.88;;;82.80;;
69203;SDS011;56317;27.658;85.326;2023-03-04T05:30:37;98.63;;;73.60;;
69203;SDS011;56317;27.658;85.326;2023-03-04T05:33:06;109.63;;;75.32;;
69203;SDS011;56317;27.658;85.326;2023-03-04T05:35:35;95.47;;;68.50;;
69203;SDS011;56317;27.658;85.326;2023-03-04T05:38:04;85.70;;;65.57;;
69203;SDS011;56317;27.658;85.326;2023-03-04T05:40:33;94.72;;;69.88;;
69203;SDS011;56317;27.658;85.326;2023-03-04T05:43:01;92.72;;;72.70;;
69203;SDS011;56317;27.658;85.326;2023-03-04T05:45:28;106.00;;;75.75;;
69203;SDS011;56317;27.658;85.326;2023-03-04T05:47:55;101.38;;;73.03;;
69203;SDS011;56317;27.658;85.326;2023-03-04T05:50:23;101.63;;;75.90;;
69203;SDS011;56317;27.658;85.326;2023-03-04T05:52:51;110.63;;;79.57;;
69203;SDS011;56317;27.658;85.326;2023-03-04T05:55:18;105.72;;;78.13;;
69203;SDS011;56317;27.658;85.326;2023-03-04T05:57:46;100.43;;;76.72;;
69203;SDS011;56317;27.658;85.326;2023-03-04T06:00:13;102.53;;;76.43;;
69203;SDS011;56317;27.658;85.326;2023-03-04T06:02:41;107.10;;;76.75;;
69203;SDS011;56317;27.658;85.326;2023-03-04T06:05:10;102.88;;;74.38;;
69203;SDS011;56317;27.658;85.326;2023-03-04T06:07:39;108.35;;;75.90;;
69203;SDS011;56317;27.658;85.326;2023-03-04T06:10:08;98.65;;;75.03;;
69203;SDS011;56317;27.658;85.326;2023-03-04T06:12:40;102.30;;;74.53;;
69203;SDS011;56317;27.658;85.326;2023-03-04T06:15:08;101.00;;;72.55;;
69203;SDS011;56317;27.658;85.326;2023-03-04T06:17:36;102.03;;;75.18;;
69203;SDS011;56317;27.658;85.326;2023-03-04T06:20:06;90.63;;;68.97;;
69203;SDS011;56317;27.658;85.326;2023-03-04T06:22:34;94.88;;;67.72;;
69203;SDS011;56317;27.658;85.326;2023-03-04T06:25:01;90.38;;;66.35;;
69203;SDS011;56317;27.658;85.326;2023-03-04T06:27:29;92.43;;;65.30;;
69203;SDS011;56317;27.658;85.326;2023-03-04T06:29:56;90.35;;;63.20;;
69203;SDS011;56317;27.658;85.326;2023-03-04T06:32:23;84.55;;;62.03;;
69203;SDS011;56317;27.658;85.326;2023-03-04T06:34:50;83.25;;;61.75;;
69203;SDS011;56317;27.658;85.326;2023-03-04T06:37:18;82.40;;;61.08;;
69203;SDS011;56317;27.658;85.326;2023-03-04T06:39:45;90.57;;;62.70;;
69203;SDS011;56317;27.658;85.326;2023-03-04T06:42:13;82.95;;;60.25;;
69203;SDS011;56317;27.658;85.326;2023-03-04T06:44:40;76.07;;;59.15;;
69203;SDS011;56317;27.658;85.326;2023-03-04T06:47:07;86.00;;;60.30;;
69203;SDS011;56317;27.658;85.326;2023-03-04T06:49:35;91.25;;;61.55;;
69203;SDS011;56317;27.658;85.326;2023-03-04T06:52:02;95.97;;;61.83;;
69203;SDS011;56317;27.658;85.326;2023-03-04T06:54:29;89.80;;;58.88;;
69203;SDS011;56317;27.658;85.326;2023-03-04T06:56:57;84.95;;;58.22;;
69203;SDS011;56317;27.658;85.326;2023-03-04T06:59:24;85.00;;;59.65;;
69203;SDS011;56317;27.658;85.326;2023-03-04T07:01:52;90.25;;;60.35;;
69203;SDS011;56317;27.658;85.326;2023-03-04T07:04:19;86.93;;;62.08;;
69203;SDS011;56317;27.658;85.326;2023-03-04T07:06:48;82.65;;;58.53;;
69203;SDS011;56317;27.658;85.326;2023-03-04T07:09:15;85.90;;;61.35;;
69203;SDS011;56317;27.658;85.326;2023-03-04T07:11:43;80.30;;;59.65;;
69203;SDS011;56317;27.658;85.326;2023-03-04T07:14:10;112.32;;;82.68;;
69203;SDS011;56317;27.658;85.326;2023-03-04T07:16:38;86.70;;;63.22;;
69203;SDS011;56317;27.658;85.326;2023-03-04T07:19:05;98.60;;;65.00;;
69203;SDS011;56317;27.658;85.326;2023-03-04T07:21:32;96.55;;;66.70;;
69203;SDS011;56317;27.658;85.326;2023-03-04T07:24:00;113.60;;;83.95;;
69203;SDS011;56317;27.658;85.326;2023-03-04T07:26:27;116.88;;;86.68;;
69203;SDS011;56317;27.658;85.326;2023-03-04T07:28:54;104.00;;;76.65;;
69203;SDS011;56317;27.658;85.326;2023-03-04T07:31:28;110.03;;;77.80;;
69203;SDS011;56317;27.658;85.326;2023-03-04T07:33:58;92.22;;;67.70;;
69203;SDS011;56317;27.658;85.326;2023-03-04T07:36:27;119.82;;;81.15;;
69203;SDS011;56317;27.658;85.326;2023-03-04T07:38:54;140.88;;;90.70;;
69203;SDS011;56317;27.658;85.326;2023-03-04T07:41:23;127.70;;;92.47;;
69203;SDS011;56317;27.658;85.326;2023-03-04T07:43:51;93.40;;;66.85;;
69203;SDS011;56317;27.658;85.326;2023-03-04T07:46:18;103.00;;;72.72;;
69203;SDS011;56317;27.658;85.326;2023-03-04T07:48:46;102.60;;;74.78;;
69203;SDS011;56317;27.658;85.326;2023-03-04T07:53:42;115.10;;;79.93;;
69203;SDS011;56317;27.658;85.326;2023-03-04T07:56:12;102.85;;;67.32;;
69203;SDS011;56317;27.658;85.326;2023-03-04T07:58:43;96.70;;;66.88;;
69203;SDS011;56317;27.658;85.326;2023-03-04T08:01:12;113.75;;;71.95;;
69203;SDS011;56317;27.658;85.326;2023-03-04T08:03:44;106.28;;;73.50;;
69203;SDS011;56317;27.658;85.326;2023-03-04T08:06:12;114.28;;;76.50;;
69203;SDS011;56317;27.658;85.326;2023-03-04T08:08:42;94.43;;;66.07;;
69203;SDS011;56317;27.658;85.326;2023-03-04T08:11:11;99.57;;;67.80;;
69203;SDS011;56317;27.658;85.326;2023-03-04T08:13:40;103.75;;;71.68;;
69203;SDS011;56317;27.658;85.326;2023-03-04T08:16:09;104.05;;;69.18;;
69203;SDS011;56317;27.658;85.326;2023-03-04T08:18:41;107.18;;;68.90;;
69203;SDS011;56317;27.658;85.326;2023-03-04T08:21:12;96.03;;;63.45;;
69203;SDS011;56317;27.658;85.326;2023-03-04T08:23:41;91.68;;;65.32;;
69203;SDS011;56317;27.658;85.326;2023-03-04T08:26:09;91.18;;;64.50;;
69203;SDS011;56317;27.658;85.326;2023-03-04T08:28:39;95.22;;;70.20;;
69203;SDS011;56317;27.658;85.326;2023-03-04T08:31:06;97.85;;;67.25;;
69203;SDS011;56317;27.658;85.326;2023-03-04T08:33:33;93.43;;;70.10;;
69203;SDS011;56317;27.658;85.326;2023-03-04T08:36:01;94.80;;;66.53;;
69203;SDS011;56317;27.658;85.326;2023-03-04T08:38:28;99.68;;;65.45;;
69203;SDS011;56317;27.658;85.326;2023-03-04T08:40:56;103.57;;;69.15;;
69203;SDS011;56317;27.658;85.326;2023-03-04T08:43:24;92.38;;;67.25;;
69203;SDS011;56317;27.658;85.326;2023-03-04T08:45:52;96.45;;;68.57;;
69203;SDS011;56317;27.658;85.326;2023-03-04T08:48:21;97.63;;;68.88;;
69203;SDS011;56317;27.658;85.326;2023-03-04T08:50:49;92.82;;;67.22;;
69203;SDS011;56317;27.658;85.326;2023-03-04T08:53:17;97.38;;;69.25;;
69203;SDS011;56317;27.658;85.326;2023-03-04T08:55:45;104.05;;;68.45;;
69203;SDS011;56317;27.658;85.326;2023-03-04T08:58:13;108.45;;;75.20;;
69203;SDS011;56317;27.658;85.326;2023-03-04T09:00:43;99.85;;;67.03;;
69203;SDS011;56317;27.658;85.326;2023-03-04T09:03:16;107.93;;;72.60;;
69203;SDS011;56317;27.658;85.326;2023-03-04T09:05:45;107.57;;;71.00;;
69203;SDS011;56317;27.658;85.326;2023-03-04T09:08:14;101.35;;;62.90;;
69203;SDS011;56317;27.658;85.326;2023-03-04T09:10:42;108.53;;;68.32;;
69203;SDS011;56317;27.658;85.326;2023-03-04T09:13:10;103.80;;;68.38;;
69203;SDS011;56317;27.658;85.326;2023-03-04T09:15:44;100.10;;;70.03;;
69203;SDS011;56317;27.658;85.326;2023-03-04T09:18:12;109.82;;;70.80;;
69203;SDS011;56317;27.658;85.326;2023-03-04T09:20:40;103.28;;;69.63;;
69203;SDS011;56317;27.658;85.326;2023-03-04T09:23:07;99.50;;;68.05;;
69203;SDS011;56317;27.658;85.326;2023-03-04T09:25:35;111.72;;;70.47;;
69203;SDS011;56317;27.658;85.326;2023-03-04T09:28:03;134.68;;;84.05;;
69203;SDS011;56317;27.658;85.326;2023-03-04T09:30:31;108.88;;;76.40;;
69203;SDS011;56317;27.658;85.326;2023-03-04T09:32:59;110.10;;;74.40;;
69203;SDS011;56317;27.658;85.326;2023-03-04T09:35:26;100.18;;;70.63;;
69203;SDS011;56317;27.658;85.326;2023-03-04T09:37:57;100.03;;;72.65;;
69203;SDS011;56317;27.658;85.326;2023-03-04T09:40:29;115.22;;;72.32;;
69203;SDS011;56317;27.658;85.326;2023-03-04T09:43:16;116.70;;;77.32;;
69203;SDS011;56317;27.658;85.326;2023-03-04T09:45:58;100.45;;;71.40;;
69203;SDS011;56317;27.658;85.326;2023-03-04T09:48:29;102.38;;;71.85;;
69203;SDS011;56317;27.658;85.326;2023-03-04T09:56:41;118.28;;;82.57;;
69203;SDS011;56317;27.658;85.326;2023-03-04T10:01:54;115.78;;;78.32;;
69203;SDS011;56317;27.658;85.326;2023-03-04T10:04:34;118.13;;;82.80;;
69203;SDS011;56317;27.658;85.326;2023-03-04T10:07:12;120.28;;;78.10;;
69203;SDS011;56317;27.658;85.326;2023-03-04T10:12:29;133.95;;;92.68;;
69203;SDS011;56317;27.658;85.326;2023-03-04T10:15:27;123.15;;;84.20;;
69203;SDS011;56317;27.658;85.326;2023-03-04T10:18:00;131.65;;;85.22;;
69203;SDS011;56317;27.658;85.326;2023-03-04T10:20:50;128.75;;;84.38;;
69203;SDS011;56317;27.658;85.326;2023-03-04T10:23:25;143.30;;;86.70;;
69203;SDS011;56317;27.658;85.326;2023-03-04T10:25:54;136.43;;;85.93;;
69203;SDS011;56317;27.658;85.326;2023-03-04T10:28:30;131.07;;;85.00;;
69203;SDS011;56317;27.658;85.326;2023-03-04T10:31:01;124.25;;;83.28;;
69203;SDS011;56317;27.658;85.326;2023-03-04T10:33:36;133.98;;;84.13;;
69203;SDS011;56317;27.658;85.326;2023-03-04T10:36:09;128.18;;;85.65;;
69203;SDS011;56317;27.658;85.326;2023-03-04T10:38:45;129.23;;;86.63;;
69203;SDS011;56317;27.658;85.326;2023-03-04T10:41:22;127.22;;;86.47;;
69203;SDS011;56317;27.658;85.326;2023-03-04T10:46:38;129.30;;;87.22;;
69203;SDS011;56317;27.658;85.326;2023-03-04T10:49:08;134.15;;;86.97;;
69203;SDS011;56317;27.658;85.326;2023-03-04T10:51:46;126.50;;;87.22;;
69203;SDS011;56317;27.658;85.326;2023-03-04T10:54:21;118.72;;;78.18;;
69203;SDS011;56317;27.658;85.326;2023-03-04T10:56:59;137.95;;;90.55;;
69203;SDS011;56317;27.658;85.326;2023-03-04T11:04:50;132.38;;;86.97;;
69203;SDS011;56317;27.658;85.326;2023-03-04T11:07:18;140.07;;;90.90;;
69203;SDS011;56317;27.658;85.326;2023-03-04T11:09:47;137.88;;;93.90;;
69203;SDS011;56317;27.658;85.326;2023-03-04T11:12:16;131.77;;;92.82;;
69203;SDS011;56317;27.658;85.326;2023-03-04T11:14:49;135.15;;;91.82;;
69203;SDS011;56317;27.658;85.326;2023-03-04T11:17:19;135.15;;;92.53;;
69203;SDS011;56317;27.658;85.326;2023-03-04T11:19:56;145.88;;;96.28;;
69203;SDS011;56317;27.658;85.326;2023-03-04T11:22:46;138.70;;;95.20;;
69203;SDS011;56317;27.658;85.326;2023-03-04T11:25:32;144.43;;;98.25;;
69203;SDS011;56317;27.658;85.326;2023-03-04T11:30:49;151.70;;;100.60;;
69203;SDS011;56317;27.658;85.326;2023-03-04T11:39:03;152.95;;;103.05;;
69203;SDS011;56317;27.658;85.326;2023-03-04T11:41:38;157.18;;;102.82;;
69203;SDS011;56317;27.658;85.326;2023-03-04T11:44:11;153.48;;;101.07;;
69203;SDS011;56317;27.658;85.326;2023-03-04T11:46:43;168.88;;;103.15;;
69203;SDS011;56317;27.658;85.326;2023-03-04T11:52:18;164.82;;;106.68;;
69203;SDS011;56317;27.658;85.326;2023-03-04T11:57:49;163.25;;;108.13;;
69203;SDS011;56317;27.658;85.326;2023-03-04T12:00:33;188.48;;;111.95;;
69203;SDS011;56317;27.658;85.326;2023-03-04T12:23:34;202.38;;;124.15;;
69203;SDS011;56317;27.658;85.326;2023-03-04T12:32:51;194.15;;;117.95;;
69203;SDS011;56317;27.658;85.326;2023-03-04T12:43:44;209.90;;;125.30;;
69203;SDS011;56317;27.658;85.326;2023-03-04T12:46:27;189.43;;;119.55;;
69203;SDS011;56317;27.658;85.326;2023-03-04T12:59:46;197.98;;;125.05;;
69203;SDS011;56317;27.658;85.326;2023-03-04T13:11:02;185.10;;;123.57;;
69203;SDS011;56317;27.658;85.326;2023-03-04T13:14:21;209.52;;;126.80;;
69203;SDS011;56317;27.658;85.326;2023-03-04T13:16:55;189.52;;;123.50;;
69203;SDS011;56317;27.658;85.326;2023-03-04T13:19:47;205.73;;;128.23;;
69203;SDS011;56317;27.658;85.326;2023-03-04T13:22:27;216.75;;;130.20;;
69203;SDS011;56317;27.658;85.326;2023-03-04T13:38:21;206.45;;;128.00;;
69203;SDS011;56317;27.658;85.326;2023-03-04T13:43:40;219.00;;;131.93;;
69203;SDS011;56317;27.658;85.326;2023-03-04T13:59:28;201.15;;;125.57;;
69203;SDS011;56317;27.658;85.326;2023-03-04T14:02:10;209.00;;;126.10;;
69203;SDS011;56317;27.658;85.326;2023-03-04T14:04:42;209.50;;;128.70;;
69203;SDS011;56317;27.658;85.326;2023-03-04T14:07:23;205.60;;;128.05;;
69203;SDS011;56317;27.658;85.326;2023-03-04T14:12:35;211.30;;;132.80;;
69203;SDS011;56317;27.658;85.326;2023-03-04T14:17:39;224.60;;;139.32;;
69203;SDS011;56317;27.658;85.326;2023-03-04T14:20:30;231.75;;;143.13;;
69203;SDS011;56317;27.658;85.326;2023-03-04T14:22:59;242.43;;;142.00;;
69203;SDS011;56317;27.658;85.326;2023-03-04T14:25:28;241.73;;;143.27;;
69203;SDS011;56317;27.658;85.326;2023-03-04T14:28:08;230.23;;;141.30;;
69203;SDS011;56317;27.658;85.326;2023-03-04T14:30:38;227.50;;;137.00;;
69203;SDS011;56317;27.658;85.326;2023-03-04T14:33:07;204.30;;;135.18;;
69203;SDS011;56317;27.658;85.326;2023-03-04T14:35:40;224.52;;;136.60;;
69203;SDS011;56317;27.658;85.326;2023-03-04T14:38:23;223.13;;;136.75;;
69203;SDS011;56317;27.658;85.326;2023-03-04T14:41:23;218.93;;;133.35;;
69203;SDS011;56317;27.658;85.326;2023-03-04T14:46:50;211.63;;;132.35;;
69203;SDS011;56317;27.658;85.326;2023-03-04T14:49:25;208.85;;;132.88;;
69203;SDS011;56317;27.658;85.326;2023-03-04T14:51:54;221.15;;;135.45;;
69203;SDS011;56317;27.658;85.326;2023-03-04T14:54:37;218.88;;;134.65;;
69203;SDS011;56317;27.658;85.326;2023-03-04T14:57:21;229.07;;;143.23;;
69203;SDS011;56317;27.658;85.326;2023-03-04T15:00:06;230.30;;;138.48;;
69203;SDS011;56317;27.658;85.326;2023-03-04T15:02:49;226.60;;;142.65;;
69203;SDS011;56317;27.658;85.326;2023-03-04T15:05:37;233.15;;;144.35;;
69203;SDS011;56317;27.658;85.326;2023-03-04T15:08:05;233.13;;;143.50;;
69203;SDS011;56317;27.658;85.326;2023-03-04T15:10:52;262.90;;;145.32;;
69203;SDS011;56317;27.658;85.326;2023-03-04T15:16:07;248.95;;;143.85;;
69203;SDS011;56317;27.658;85.326;2023-03-04T15:18:36;256.60;;;149.02;;
69203;SDS011;56317;27.658;85.326;2023-03-04T15:21:45;252.45;;;144.75;;
69203;SDS011;56317;27.658;85.326;2023-03-04T15:24:05;246.13;;;144.13;;
69203;SDS011;56317;27.658;85.326;2023-03-04T15:29:13;248.55;;;141.75;;
69203;SDS011;56317;27.658;85.326;2023-03-04T15:31:45;236.20;;;141.38;;
69203;SDS011;56317;27.658;85.326;2023-03-04T15:34:13;245.60;;;141.45;;
69203;SDS011;56317;27.658;85.326;2023-03-04T15:36:43;252.70;;;141.43;;
69203;SDS011;56317;27.658;85.326;2023-03-04T15:39:14;245.03;;;147.83;;
69203;SDS011;56317;27.658;85.326;2023-03-04T15:41:42;227.20;;;146.20;;
69203;SDS011;56317;27.658;85.326;2023-03-04T15:44:11;257.00;;;155.70;;
69203;SDS011;56317;27.658;85.326;2023-03-04T15:46:39;276.20;;;161.57;;
69203;SDS011;56317;27.658;85.326;2023-03-04T15:49:06;263.70;;;160.02;;
69203;SDS011;56317;27.658;85.326;2023-03-04T15:51:33;285.65;;;179.50;;
69203;SDS011;56317;27.658;85.326;2023-03-04T15:54:01;278.83;;;177.82;;
69203;SDS011;56317;27.658;85.326;2023-03-04T15:56:30;302.55;;;185.88;;
69203;SDS011;56317;27.658;85.326;2023-03-04T15:59:02;290.10;;;171.40;;
69203;SDS011;56317;27.658;85.326;2023-03-04T16:01:37;296.38;;;168.30;;
69203;SDS011;56317;27.658;85.326;2023-03-04T16:04:05;264.67;;;168.75;;
69203;SDS011;56317;27.658;85.326;2023-03-04T16:06:35;258.30;;;159.00;;
69203;SDS011;56317;27.658;85.326;2023-03-04T16:09:03;234.10;;;140.65;;
69203;SDS011;56317;27.658;85.326;2023-03-04T16:11:30;221.25;;;140.00;;
69203;SDS011;56317;27.658;85.326;2023-03-04T16:14:01;232.45;;;139.38;;
69203;SDS011;56317;27.658;85.326;2023-03-04T16:16:29;227.55;;;138.45;;
69203;SDS011;56317;27.658;85.326;2023-03-04T16:18:56;233.50;;;144.50;;
69203;SDS011;56317;27.658;85.326;2023-03-04T16:21:23;234.02;;;142.43;;
69203;SDS011;56317;27.658;85.326;2023-03-04T16:23:51;233.23;;;140.57;;
69203;SDS011;56317;27.658;85.326;2023-03-04T16:26:19;235.90;;;143.32;;